Date,TemperatureHighF,TemperatureAvgF,TemperatureLowF,DewpointHighF,DewpointAvgF,DewpointLowF,HumidityHigh,HumidityAvg,HumidityLow,PressureMaxIn,PressureMinIn,WindSpeedMaxMPH,WindSpeedAvgMPH,GustSpeedMaxMPH,PrecipitationSumIn
2013-1-1,27,18,10,17,12,7,85,76,61,30.15,30.01,17,3,17,0.00
2013-1-2,34,21,12,14,8,1,71,56,37,30.23,30.13,15,5,15,0.00
2013-1-3,28,12,3,9,2,-2,80,65,43,30.24,30.10,10,2,12,0.00
2013-1-4,30,14,4,11,4,-2,79,65,43,30.10,30.00,10,2,10,0.00
2013-1-5,26,14,6,12,5,0,83,68,51,30.21,30.07,9,2,12,0.00
2013-1-6,31,17,8,14,9,2,83,70,48,30.08,29.82,13,2,13,0.00
2013-1-7,40,28,14,22,15,8,79,60,40,29.88,29.61,37,8,44,0.00
2013-1-8,45,39,27,22,18,15,69,44,32,29.99,29.62,44,17,51,0.00
2013-1-9,47,33,24,30,22,16,100,64,43,30.03,29.66,39,9,39,0.00
2013-1-10,47,30,18,27,22,14,87,73,46,29.66,29.35,28,8,39,0.00
2013-1-11,18,10,7,14,6,3,87,85,82,29.93,29.42,38,18,40,0.04
2013-1-12,13,7,1,8,3,-3,84,82,77,29.99,29.92,13,2,15,0.00
2013-1-13,14,3,-5,8,-1,-10,94,81,73,30.06,29.99,8,2,9,0.00
2013-1-14,10,4,-8,4,-2,-13,92,78,69,30.07,29.92,19,3,19,0.00
2013-1-15,21,13,8,12,8,4,86,79,65,30.11,29.98,11,3,14,0.02
2013-1-16,25,13,4,16,8,0,94,78,66,30.29,30.11,9,2,10,0.01
2013-1-17,25,13,3,16,8,-1,88,79,66,30.33,30.08,12,2,13,0.00
2013-1-18,45,26,11,22,14,6,92,65,34,30.09,29.88,32,7,35,0.01
2013-1-19,40,31,20,20,16,11,77,55,35,30.16,29.98,30,6,30,0.00
2013-1-20,40,27,12,21,16,8,83,64,36,30.28,30.04,28,6,36,0.00
2013-1-21,32,19,11,20,14,8,95,79,62,30.16,29.94,14,3,14,0.00
2013-1-22,33,21,10,20,14,7,92,75,58,30.04,29.95,14,2,15,0.00
2013-1-23,33,24,17,21,16,11,83,73,58,30.04,29.90,14,2,14,0.00
2013-1-24,54,38,15,29,21,10,82,55,35,30.01,29.80,45,14,46,0.00
2013-1-25,49,39,27,30,24,20,80,57,37,30.02,29.87,33,9,33,0.00
2013-1-26,46,32,24,29,23,19,84,71,47,29.87,29.63,11,3,12,0.00
2013-1-27,38,32,26,30,26,21,92,81,70,29.71,29.60,20,9,26,0.00
2013-1-28,35,26,18,22,17,7,92,71,50,29.74,29.63,17,4,17,0.05
2013-1-29,27,16,6,22,11,0,100,79,52,29.98,29.59,24,5,28,0.01
2013-1-30,21,16,7,18,12,3,89,84,80,29.88,29.77,10,3,10,0.00
2013-1-31,29,22,16,22,18,13,90,85,71,30.06,29.88,15,4,15,0.04